sensor_id;sensor_type;location;lat;lon;timestamp;P1;durP1;ratioP1;P2;durP2;ratioP2
81229;SDS011;70701;44.452;18.652;2023-08-24T00:00:45;37.70;;;33.88;;
81229;SDS011;70701;44.452;18.652;2023-08-24T00:03:14;38.08;;;34.60;;
81229;SDS011;70701;44.452;18.652;2023-08-24T00:05:40;39.08;;;35.17;;
81229;SDS011;70701;44.452;18.652;2023-08-24T00:08:07;36.72;;;33.38;;
81229;SDS011;70701;44.452;18.652;2023-08-24T00:10:34;37.33;;;33.83;;
81229;SDS011;70701;44.452;18.652;2023-08-24T00:13:01;36.47;;;32.97;;
81229;SDS011;70701;44.452;18.652;2023-08-24T00:15:27;37.63;;;33.92;;
81229;SDS011;70701;44.452;18.652;2023-08-24T00:17:54;38.75;;;35.10;;
81229;SDS011;70701;44.452;18.652;2023-08-24T00:20:19;41.45;;;36.58;;
81229;SDS011;70701;44.452;18.652;2023-08-24T00:22:45;38.38;;;34.78;;
81229;SDS011;70701;44.452;18.652;2023-08-24T00:25:14;38.20;;;34.40;;
81229;SDS011;70701;44.452;18.652;2023-08-24T00:27:43;37.22;;;33.75;;
81229;SDS011;70701;44.452;18.652;2023-08-24T00:30:09;38.25;;;34.38;;
81229;SDS011;70701;44.452;18.652;2023-08-24T00:32:36;37.25;;;33.40;;
81229;SDS011;70701;44.452;18.652;2023-08-24T00:35:02;36.95;;;33.42;;
81229;SDS011;70701;44.452;18.652;2023-08-24T00:37:34;36.15;;;32.58;;
81229;SDS011;70701;44.452;18.652;2023-08-24T00:40:01;36.25;;;32.88;;
81229;SDS011;70701;44.452;18.652;2023-08-24T00:42:38;37.53;;;33.83;;
81229;SDS011;70701;44.452;18.652;2023-08-24T00:45:05;36.50;;;32.83;;
81229;SDS011;70701;44.452;18.652;2023-08-24T00:47:32;38.78;;;33.72;;
81229;SDS011;70701;44.452;18.652;2023-08-24T00:50:02;37.55;;;33.75;;
81229;SDS011;70701;44.452;18.652;2023-08-24T00:52:29;38.15;;;34.45;;
81229;SDS011;70701;44.452;18.652;2023-08-24T00:54:57;38.33;;;34.67;;
81229;SDS011;70701;44.452;18.652;2023-08-24T00:57:24;38.75;;;35.03;;
81229;SDS011;70701;44.452;18.652;2023-08-24T00:59:50;38.28;;;34.67;;
81229;SDS011;70701;44.452;18.652;2023-08-24T01:02:16;40.03;;;35.90;;
81229;SDS011;70701;44.452;18.652;2023-08-24T01:04:41;38.72;;;34.92;;
81229;SDS011;70701;44.452;18.652;2023-08-24T01:07:10;39.70;;;35.92;;
81229;SDS011;70701;44.452;18.652;2023-08-24T01:09:36;40.33;;;35.95;;
81229;SDS011;70701;44.452;18.652;2023-08-24T01:12:09;39.50;;;35.65;;
81229;SDS011;70701;44.452;18.652;2023-08-24T01:14:47;38.65;;;35.00;;
81229;SDS011;70701;44.452;18.652;2023-08-24T01:17:21;39.55;;;35.72;;
81229;SDS011;70701;44.452;18.652;2023-08-24T01:19:49;39.72;;;35.78;;
81229;SDS011;70701;44.452;18.652;2023-08-24T01:25:15;41.85;;;37.90;;
81229;SDS011;70701;44.452;18.652;2023-08-24T01:27:42;43.53;;;39.30;;
81229;SDS011;70701;44.452;18.652;2023-08-24T01:30:09;42.53;;;38.42;;
81229;SDS011;70701;44.452;18.652;2023-08-24T01:32:36;45.17;;;40.83;;
81229;SDS011;70701;44.452;18.652;2023-08-24T01:35:03;45.20;;;40.88;;
81229;SDS011;70701;44.452;18.652;2023-08-24T01:37:36;43.40;;;39.22;;
81229;SDS011;70701;44.452;18.652;2023-08-24T01:40:04;43.40;;;39.35;;
81229;SDS011;70701;44.452;18.652;2023-08-24T01:42:35;43.17;;;39.20;;
81229;SDS011;70701;44.452;18.652;2023-08-24T01:45:06;43.30;;;39.10;;
81229;SDS011;70701;44.452;18.652;2023-08-24T01:47:35;41.70;;;37.60;;
81229;SDS011;70701;44.452;18.652;2023-08-24T01:50:07;40.50;;;36.67;;
81229;SDS011;70701;44.452;18.652;2023-08-24T01:52:36;40.65;;;36.65;;
81229;SDS011;70701;44.452;18.652;2023-08-24T01:55:02;39.88;;;35.85;;
81229;SDS011;70701;44.452;18.652;2023-08-24T01:57:28;40.15;;;36.38;;
81229;SDS011;70701;44.452;18.652;2023-08-24T01:59:54;41.05;;;37.00;;
81229;SDS011;70701;44.452;18.652;2023-08-24T02:02:24;41.40;;;37.53;;
81229;SDS011;70701;44.452;18.652;2023-08-24T02:04:53;40.28;;;36.38;;
81229;SDS011;70701;44.452;18.652;2023-08-24T02:07:19;40.50;;;36.70;;
81229;SDS011;70701;44.452;18.652;2023-08-24T02:09:45;39.17;;;35.55;;
81229;SDS011;70701;44.452;18.652;2023-08-24T02:12:14;40.45;;;36.55;;
81229;SDS011;70701;44.452;18.652;2023-08-24T02:14:49;40.35;;;36.55;;
81229;SDS011;70701;44.452;18.652;2023-08-24T02:17:14;40.47;;;36.60;;
81229;SDS011;70701;44.452;18.652;2023-08-24T02:19:40;41.22;;;37.10;;
81229;SDS011;70701;44.452;18.652;2023-08-24T02:22:08;40.17;;;36.40;;
81229;SDS011;70701;44.452;18.652;2023-08-24T02:24:36;41.53;;;37.55;;
81229;SDS011;70701;44.452;18.652;2023-08-24T02:27:05;39.83;;;35.95;;
81229;SDS011;70701;44.452;18.652;2023-08-24T02:29:32;42.33;;;37.92;;
81229;SDS011;70701;44.452;18.652;2023-08-24T02:31:57;40.25;;;36.50;;
81229;SDS011;70701;44.452;18.652;2023-08-24T02:34:23;42.22;;;38.13;;
81229;SDS011;70701;44.452;18.652;2023-08-24T02:36:48;40.42;;;36.53;;
81229;SDS011;70701;44.452;18.652;2023-08-24T02:39:14;40.78;;;36.92;;
81229;SDS011;70701;44.452;18.652;2023-08-24T02:41:40;40.08;;;36.03;;
81229;SDS011;70701;44.452;18.652;2023-08-24T02:44:05;39.88;;;36.17;;
81229;SDS011;70701;44.452;18.652;2023-08-24T02:46:31;39.83;;;35.88;;
81229;SDS011;70701;44.452;18.652;2023-08-24T02:48:56;40.30;;;36.53;;
81229;SDS011;70701;44.452;18.652;2023-08-24T02:51:23;40.15;;;36.40;;
81229;SDS011;70701;44.452;18.652;2023-08-24T02:53:49;42.45;;;38.05;;
81229;SDS011;70701;44.452;18.652;2023-08-24T02:56:15;40.47;;;36.42;;
81229;SDS011;70701;44.452;18.652;2023-08-24T02:58:45;42.03;;;37.78;;
81229;SDS011;70701;44.452;18.652;2023-08-24T03:01:11;39.03;;;35.38;;
81229;SDS011;70701;44.452;18.652;2023-08-24T03:03:38;41.38;;;36.92;;
81229;SDS011;70701;44.452;18.652;2023-08-24T03:06:04;42.22;;;38.05;;
81229;SDS011;70701;44.452;18.652;2023-08-24T03:08:31;42.85;;;38.72;;
81229;SDS011;70701;44.452;18.652;2023-08-24T03:11:02;40.15;;;36.33;;
81229;SDS011;70701;44.452;18.652;2023-08-24T03:13:28;42.80;;;38.63;;
81229;SDS011;70701;44.452;18.652;2023-08-24T03:15:54;41.08;;;37.25;;
81229;SDS011;70701;44.452;18.652;2023-08-24T03:18:23;40.72;;;36.97;;
81229;SDS011;70701;44.452;18.652;2023-08-24T03:20:49;41.38;;;37.17;;
81229;SDS011;70701;44.452;18.652;2023-08-24T03:23:15;42.25;;;37.97;;
81229;SDS011;70701;44.452;18.652;2023-08-24T03:25:42;41.47;;;37.45;;
81229;SDS011;70701;44.452;18.652;2023-08-24T03:28:08;40.08;;;35.80;;
81229;SDS011;70701;44.452;18.652;2023-08-24T03:30:38;42.40;;;38.28;;
81229;SDS011;70701;44.452;18.652;2023-08-24T03:33:06;44.72;;;40.20;;
81229;SDS011;70701;44.452;18.652;2023-08-24T03:35:32;44.55;;;39.97;;
81229;SDS011;70701;44.452;18.652;2023-08-24T03:37:59;39.05;;;35.20;;
81229;SDS011;70701;44.452;18.652;2023-08-24T03:40:29;37.92;;;34.35;;
81229;SDS011;70701;44.452;18.652;2023-08-24T03:42:57;38.22;;;34.63;;
81229;SDS011;70701;44.452;18.652;2023-08-24T03:45:23;37.63;;;33.75;;
81229;SDS011;70701;44.452;18.652;2023-08-24T03:47:49;36.45;;;32.75;;
81229;SDS011;70701;44.452;18.652;2023-08-24T03:50:15;34.72;;;31.35;;
81229;SDS011;70701;44.452;18.652;2023-08-24T03:52:41;34.88;;;31.38;;
81229;SDS011;70701;44.452;18.652;2023-08-24T03:55:08;35.00;;;31.25;;
81229;SDS011;70701;44.452;18.652;2023-08-24T03:57:34;35.60;;;31.77;;
81229;SDS011;70701;44.452;18.652;2023-08-24T04:00:01;33.88;;;30.58;;
81229;SDS011;70701;44.452;18.652;2023-08-24T04:02:39;34.35;;;31.15;;
81229;SDS011;70701;44.452;18.652;2023-08-24T04:05:11;34.20;;;30.80;;
81229;SDS011;70701;44.452;18.652;2023-08-24T04:07:37;34.53;;;30.83;;
81229;SDS011;70701;44.452;18.652;2023-08-24T04:10:03;35.40;;;31.73;;
81229;SDS011;70701;44.452;18.652;2023-08-24T04:12:30;35.53;;;31.90;;
81229;SDS011;70701;44.452;18.652;2023-08-24T04:14:56;34.72;;;31.30;;
81229;SDS011;70701;44.452;18.652;2023-08-24T04:17:23;33.92;;;30.65;;
81229;SDS011;70701;44.452;18.652;2023-08-24T04:19:49;36.47;;;32.83;;
81229;SDS011;70701;44.452;18.652;2023-08-24T04:22:15;36.38;;;32.72;;
81229;SDS011;70701;44.452;18.652;2023-08-24T04:24:40;34.67;;;31.08;;
81229;SDS011;70701;44.452;18.652;2023-08-24T04:27:06;36.03;;;32.38;;
81229;SDS011;70701;44.452;18.652;2023-08-24T04:29:34;35.13;;;31.02;;
81229;SDS011;70701;44.452;18.652;2023-08-24T04:32:00;34.72;;;31.10;;
81229;SDS011;70701;44.452;18.652;2023-08-24T04:34:26;35.90;;;31.65;;
81229;SDS011;70701;44.452;18.652;2023-08-24T04:36:52;33.78;;;30.30;;
81229;SDS011;70701;44.452;18.652;2023-08-24T04:39:17;33.95;;;30.42;;
81229;SDS011;70701;44.452;18.652;2023-08-24T04:41:46;36.42;;;32.80;;
81229;SDS011;70701;44.452;18.652;2023-08-24T04:44:17;35.55;;;32.17;;
81229;SDS011;70701;44.452;18.652;2023-08-24T04:46:43;34.85;;;31.30;;
81229;SDS011;70701;44.452;18.652;2023-08-24T04:49:08;34.50;;;31.13;;
81229;SDS011;70701;44.452;18.652;2023-08-24T04:51:37;36.53;;;32.92;;
81229;SDS011;70701;44.452;18.652;2023-08-24T04:54:03;39.25;;;33.13;;
81229;SDS011;70701;44.452;18.652;2023-08-24T04:56:29;39.38;;;35.38;;
81229;SDS011;70701;44.452;18.652;2023-08-24T04:58:57;39.67;;;35.83;;
81229;SDS011;70701;44.452;18.652;2023-08-24T05:01:28;38.63;;;34.83;;
81229;SDS011;70701;44.452;18.652;2023-08-24T05:03:56;44.83;;;32.80;;
81229;SDS011;70701;44.452;18.652;2023-08-24T05:06:22;33.55;;;30.02;;
81229;SDS011;70701;44.452;18.652;2023-08-24T05:08:48;34.15;;;30.75;;
81229;SDS011;70701;44.452;18.652;2023-08-24T05:11:16;34.58;;;31.23;;
81229;SDS011;70701;44.452;18.652;2023-08-24T05:13:43;33.72;;;30.33;;
81229;SDS011;70701;44.452;18.652;2023-08-24T05:16:09;35.00;;;30.83;;
81229;SDS011;70701;44.452;18.652;2023-08-24T05:18:35;34.78;;;31.08;;
81229;SDS011;70701;44.452;18.652;2023-08-24T05:21:02;36.45;;;32.65;;
81229;SDS011;70701;44.452;18.652;2023-08-24T05:23:29;35.60;;;32.10;;
81229;SDS011;70701;44.452;18.652;2023-08-24T05:25:58;36.33;;;32.72;;
81229;SDS011;70701;44.452;18.652;2023-08-24T05:28:28;37.05;;;33.25;;
81229;SDS011;70701;44.452;18.652;2023-08-24T05:30:54;34.95;;;31.55;;
81229;SDS011;70701;44.452;18.652;2023-08-24T05:33:21;35.83;;;32.13;;
81229;SDS011;70701;44.452;18.652;2023-08-24T05:35:48;35.25;;;31.75;;
81229;SDS011;70701;44.452;18.652;2023-08-24T05:38:14;38.10;;;31.95;;
81229;SDS011;70701;44.452;18.652;2023-08-24T05:40:41;36.47;;;32.33;;
81229;SDS011;70701;44.452;18.652;2023-08-24T05:43:08;35.03;;;31.52;;
81229;SDS011;70701;44.452;18.652;2023-08-24T05:45:35;36.40;;;32.55;;
81229;SDS011;70701;44.452;18.652;2023-08-24T05:48:01;37.72;;;33.08;;
81229;SDS011;70701;44.452;18.652;2023-08-24T05:50:27;35.03;;;31.40;;
81229;SDS011;70701;44.452;18.652;2023-08-24T05:52:52;36.22;;;32.42;;
81229;SDS011;70701;44.452;18.652;2023-08-24T05:55:19;36.45;;;32.65;;
81229;SDS011;70701;44.452;18.652;2023-08-24T05:57:45;37.60;;;33.47;;
81229;SDS011;70701;44.452;18.652;2023-08-24T06:00:11;36.97;;;33.17;;
81229;SDS011;70701;44.452;18.652;2023-08-24T06:02:37;36.58;;;32.88;;
81229;SDS011;70701;44.452;18.652;2023-08-24T06:05:04;38.65;;;35.05;;
81229;SDS011;70701;44.452;18.652;2023-08-24T06:07:31;39.22;;;35.28;;
81229;SDS011;70701;44.452;18.652;2023-08-24T06:09:57;38.10;;;33.03;;
81229;SDS011;70701;44.452;18.652;2023-08-24T06:12:23;37.63;;;33.72;;
81229;SDS011;70701;44.452;18.652;2023-08-24T06:14:49;37.80;;;33.95;;
81229;SDS011;70701;44.452;18.652;2023-08-24T06:17:15;39.35;;;35.42;;
81229;SDS011;70701;44.452;18.652;2023-08-24T06:19:41;38.60;;;34.65;;
81229;SDS011;70701;44.452;18.652;2023-08-24T06:22:06;39.63;;;35.75;;
81229;SDS011;70701;44.452;18.652;2023-08-24T06:24:32;39.08;;;35.28;;
81229;SDS011;70701;44.452;18.652;2023-08-24T06:26:58;39.05;;;35.35;;
81229;SDS011;70701;44.452;18.652;2023-08-24T06:29:24;41.15;;;37.22;;
81229;SDS011;70701;44.452;18.652;2023-08-24T06:31:49;40.85;;;36.88;;
81229;SDS011;70701;44.452;18.652;2023-08-24T06:34:15;39.97;;;36.13;;
81229;SDS011;70701;44.452;18.652;2023-08-24T06:36:41;39.58;;;35.83;;
81229;SDS011;70701;44.452;18.652;2023-08-24T06:39:06;41.40;;;37.08;;
81229;SDS011;70701;44.452;18.652;2023-08-24T06:41:34;39.88;;;35.78;;
81229;SDS011;70701;44.452;18.652;2023-08-24T06:44:06;37.40;;;33.83;;
81229;SDS011;70701;44.452;18.652;2023-08-24T06:46:31;39.80;;;35.83;;
81229;SDS011;70701;44.452;18.652;2023-08-24T06:48:57;39.42;;;35.50;;
81229;SDS011;70701;44.452;18.652;2023-08-24T06:51:23;39.72;;;35.90;;
81229;SDS011;70701;44.452;18.652;2023-08-24T06:53:50;38.42;;;34.83;;
81229;SDS011;70701;44.452;18.652;2023-08-24T06:56:15;38.40;;;34.60;;
81229;SDS011;70701;44.452;18.652;2023-08-24T06:58:42;39.22;;;35.53;;
81229;SDS011;70701;44.452;18.652;2023-08-24T07:01:08;39.35;;;35.25;;
81229;SDS011;70701;44.452;18.652;2023-08-24T07:03:34;38.95;;;34.92;;
81229;SDS011;70701;44.452;18.652;2023-08-24T07:05:59;38.75;;;34.92;;
81229;SDS011;70701;44.452;18.652;2023-08-24T07:08:25;35.72;;;32.33;;
81229;SDS011;70701;44.452;18.652;2023-08-24T07:10:51;39.00;;;35.00;;
81229;SDS011;70701;44.452;18.652;2023-08-24T07:13:16;37.28;;;33.50;;
81229;SDS011;70701;44.452;18.652;2023-08-24T07:15:42;37.28;;;33.63;;
81229;SDS011;70701;44.452;18.652;2023-08-24T07:18:10;36.63;;;32.92;;
81229;SDS011;70701;44.452;18.652;2023-08-24T07:20:36;37.33;;;33.70;;
81229;SDS011;70701;44.452;18.652;2023-08-24T07:23:03;35.70;;;32.05;;
81229;SDS011;70701;44.452;18.652;2023-08-24T07:25:28;36.72;;;33.28;;
81229;SDS011;70701;44.452;18.652;2023-08-24T07:27:56;36.75;;;33.05;;
81229;SDS011;70701;44.452;18.652;2023-08-24T07:30:26;35.85;;;32.20;;
81229;SDS011;70701;44.452;18.652;2023-08-24T07:32:55;35.90;;;32.47;;
81229;SDS011;70701;44.452;18.652;2023-08-24T07:35:21;36.95;;;33.55;;
81229;SDS011;70701;44.452;18.652;2023-08-24T07:37:50;36.38;;;32.95;;
81229;SDS011;70701;44.452;18.652;2023-08-24T07:40:16;35.63;;;32.13;;
81229;SDS011;70701;44.452;18.652;2023-08-24T07:42:45;33.63;;;30.50;;
81229;SDS011;70701;44.452;18.652;2023-08-24T07:45:12;33.97;;;30.88;;
81229;SDS011;70701;44.452;18.652;2023-08-24T07:47:39;35.47;;;32.05;;
81229;SDS011;70701;44.452;18.652;2023-08-24T07:50:05;34.80;;;31.63;;
81229;SDS011;70701;44.452;18.652;2023-08-24T07:52:32;34.58;;;31.17;;
81229;SDS011;70701;44.452;18.652;2023-08-24T07:54:58;33.33;;;30.23;;
81229;SDS011;70701;44.452;18.652;2023-08-24T07:57:25;34.80;;;31.17;;
81229;SDS011;70701;44.452;18.652;2023-08-24T07:59:52;33.53;;;30.45;;
81229;SDS011;70701;44.452;18.652;2023-08-24T08:02:18;33.13;;;29.80;;
81229;SDS011;70701;44.452;18.652;2023-08-24T08:04:44;34.28;;;30.60;;
81229;SDS011;70701;44.452;18.652;2023-08-24T08:07:10;30.55;;;27.60;;
81229;SDS011;70701;44.452;18.652;2023-08-24T08:09:36;30.55;;;27.17;;
81229;SDS011;70701;44.452;18.652;2023-08-24T08:12:02;30.02;;;27.02;;
81229;SDS011;70701;44.452;18.652;2023-08-24T08:14:29;29.55;;;26.55;;
81229;SDS011;70701;44.452;18.652;2023-08-24T08:16:55;29.42;;;26.60;;
81229;SDS011;70701;44.452;18.652;2023-08-24T08:19:21;27.67;;;24.80;;
81229;SDS011;70701;44.452;18.652;2023-08-24T08:21:47;26.65;;;24.15;;
81229;SDS011;70701;44.452;18.652;2023-08-24T08:24:13;27.30;;;24.52;;
81229;SDS011;70701;44.452;18.652;2023-08-24T08:26:38;26.48;;;23.15;;
81229;SDS011;70701;44.452;18.652;2023-08-24T08:29:04;24.85;;;22.45;;
81229;SDS011;70701;44.452;18.652;2023-08-24T08:31:30;24.15;;;21.63;;
81229;SDS011;70701;44.452;18.652;2023-08-24T08:33:56;24.42;;;21.92;;
81229;SDS011;70701;44.452;18.652;2023-08-24T08:36:22;23.52;;;21.25;;
81229;SDS011;70701;44.452;18.652;2023-08-24T08:38:47;23.05;;;20.75;;
81229;SDS011;70701;44.452;18.652;2023-08-24T08:41:14;23.25;;;20.85;;
81229;SDS011;70701;44.452;18.652;2023-08-24T08:43:40;23.73;;;21.45;;
81229;SDS011;70701;44.452;18.652;2023-08-24T08:46:06;23.73;;;21.33;;
81229;SDS011;70701;44.452;18.652;2023-08-24T08:48:32;26.00;;;21.92;;
81229;SDS011;70701;44.452;18.652;2023-08-24T08:51:00;20.42;;;18.38;;
81229;SDS011;70701;44.452;18.652;2023-08-24T08:53:27;20.42;;;18.42;;
81229;SDS011;70701;44.452;18.652;2023-08-24T08:55:54;18.90;;;16.98;;
81229;SDS011;70701;44.452;18.652;2023-08-24T08:58:23;18.05;;;16.25;;
81229;SDS011;70701;44.452;18.652;2023-08-24T09:00:49;18.70;;;16.80;;
81229;SDS011;70701;44.452;18.652;2023-08-24T09:03:19;33.17;;;26.38;;
81229;SDS011;70701;44.452;18.652;2023-08-24T09:05:45;16.70;;;15.00;;
81229;SDS011;70701;44.452;18.652;2023-08-24T09:08:16;19.35;;;17.35;;
81229;SDS011;70701;44.452;18.652;2023-08-24T09:10:43;19.83;;;17.08;;
81229;SDS011;70701;44.452;18.652;2023-08-24T09:13:09;19.52;;;15.73;;
81229;SDS011;70701;44.452;18.652;2023-08-24T09:15:35;17.65;;;15.13;;
81229;SDS011;70701;44.452;18.652;2023-08-24T09:18:04;18.48;;;16.13;;
81229;SDS011;70701;44.452;18.652;2023-08-24T09:20:30;16.90;;;14.80;;
81229;SDS011;70701;44.452;18.652;2023-08-24T09:22:56;15.77;;;13.95;;
81229;SDS011;70701;44.452;18.652;2023-08-24T09:25:23;18.50;;;14.25;;
81229;SDS011;70701;44.452;18.652;2023-08-24T09:27:58;19.15;;;14.68;;
81229;SDS011;70701;44.452;18.652;2023-08-24T09:30:31;14.88;;;13.25;;
81229;SDS011;70701;44.452;18.652;2023-08-24T09:33:03;18.00;;;12.07;;
81229;SDS011;70701;44.452;18.652;2023-08-24T09:35:29;19.10;;;13.38;;
81229;SDS011;70701;44.452;18.652;2023-08-24T09:38:18;22.58;;;13.75;;
81229;SDS011;70701;44.452;18.652;2023-08-24T09:40:51;17.20;;;13.00;;
81229;SDS011;70701;44.452;18.652;2023-08-24T09:45:47;17.63;;;12.70;;
81229;SDS011;70701;44.452;18.652;2023-08-24T09:48:20;18.88;;;14.65;;
81229;SDS011;70701;44.452;18.652;2023-08-24T09:50:49;19.75;;;14.13;;
81229;SDS011;70701;44.452;18.652;2023-08-24T09:53:19;15.95;;;13.20;;
81229;SDS011;70701;44.452;18.652;2023-08-24T09:55:59;16.38;;;13.65;;
81229;SDS011;70701;44.452;18.652;2023-08-24T09:58:29;15.82;;;13.75;;
81229;SDS011;70701;44.452;18.652;2023-08-24T10:00:59;24.05;;;14.23;;
81229;SDS011;70701;44.452;18.652;2023-08-24T10:03:26;17.13;;;14.27;;
81229;SDS011;70701;44.452;18.652;2023-08-24T10:05:53;17.27;;;14.80;;
81229;SDS011;70701;44.452;18.652;2023-08-24T10:08:21;17.52;;;14.77;;
81229;SDS011;70701;44.452;18.652;2023-08-24T10:10:55;16.92;;;14.82;;
81229;SDS011;70701;44.452;18.652;2023-08-24T10:13:47;18.08;;;15.55;;
81229;SDS011;70701;44.452;18.652;2023-08-24T10:16:15;16.85;;;14.77;;
81229;SDS011;70701;44.452;18.652;2023-08-24T10:18:43;17.05;;;15.35;;
81229;SDS011;70701;44.452;18.652;2023-08-24T10:21:09;17.90;;;16.05;;
81229;SDS011;70701;44.452;18.652;2023-08-24T10:23:36;18.05;;;16.02;;
81229;SDS011;70701;44.452;18.652;2023-08-24T10:26:04;17.98;;;16.23;;
81229;SDS011;70701;44.452;18.652;2023-08-24T10:28:32;17.85;;;16.08;;
81229;SDS011;70701;44.452;18.652;2023-08-24T10:30:59;19.90;;;17.27;;
81229;SDS011;70701;44.452;18.652;2023-08-24T10:33:25;17.98;;;16.17;;
81229;SDS011;70701;44.452;18.652;2023-08-24T10:35:52;20.48;;;16.38;;
81229;SDS011;70701;44.452;18.652;2023-08-24T10:40:54;17.67;;;15.75;;
81229;SDS011;70701;44.452;18.652;2023-08-24T10:43:27;23.23;;;16.30;;
81229;SDS011;70701;44.452;18.652;2023-08-24T10:48:28;17.67;;;15.85;;
81229;SDS011;70701;44.452;18.652;2023-08-24T10:53:52;17.88;;;16.00;;
81229;SDS011;70701;44.452;18.652;2023-08-24T10:56:18;17.55;;;15.75;;
81229;SDS011;70701;44.452;18.652;2023-08-24T10:58:45;17.23;;;15.40;;
81229;SDS011;70701;44.452;18.652;2023-08-24T11:01:15;15.40;;;13.70;;
81229;SDS011;70701;44.452;18.652;2023-08-24T11:03:46;16.13;;;14.43;;
81229;SDS011;70701;44.452;18.652;2023-08-24T11:06:20;17.35;;;15.10;;
81229;SDS011;70701;44.452;18.652;2023-08-24T11:08:48;14.02;;;12.38;;
81229;SDS011;70701;44.452;18.652;2023-08-24T11:11:22;16.10;;;12.10;;
81229;SDS011;70701;44.452;18.652;2023-08-24T11:16:47;12.73;;;10.55;;
81229;SDS011;70701;44.452;18.652;2023-08-24T11:19:14;16.05;;;11.77;;
81229;SDS011;70701;44.452;18.652;2023-08-24T11:21:42;11.15;;;9.98;;
81229;SDS011;70701;44.452;18.652;2023-08-24T11:24:09;11.32;;;9.63;;
81229;SDS011;70701;44.452;18.652;2023-08-24T11:26:41;11.18;;;9.98;;
81229;SDS011;70701;44.452;18.652;2023-08-24T11:29:08;11.50;;;9.48;;
81229;SDS011;70701;44.452;18.652;2023-08-24T11:31:35;13.55;;;11.55;;
81229;SDS011;70701;44.452;18.652;2023-08-24T11:34:01;12.48;;;10.75;;
81229;SDS011;70701;44.452;18.652;2023-08-24T11:36:28;13.40;;;10.98;;
81229;SDS011;70701;44.452;18.652;2023-08-24T11:38:56;14.45;;;11.23;;
81229;SDS011;70701;44.452;18.652;2023-08-24T11:41:23;14.27;;;12.73;;
81229;SDS011;70701;44.452;18.652;2023-08-24T11:43:49;15.48;;;12.05;;
81229;SDS011;70701;44.452;18.652;2023-08-24T11:46:23;19.27;;;13.13;;
81229;SDS011;70701;44.452;18.652;2023-08-24T11:48:49;22.08;;;14.57;;
81229;SDS011;70701;44.452;18.652;2023-08-24T11:51:14;19.88;;;14.10;;
81229;SDS011;70701;44.452;18.652;2023-08-24T11:53:41;16.10;;;14.30;;
81229;SDS011;70701;44.452;18.652;2023-08-24T11:56:08;22.08;;;19.20;;
81229;SDS011;70701;44.452;18.652;2023-08-24T11:58:37;24.52;;;19.73;;
81229;SDS011;70701;44.452;18.652;2023-08-24T12:01:04;20.45;;;18.23;;
81229;SDS011;70701;44.452;18.652;2023-08-24T12:03:30;21.05;;;18.80;;
81229;SDS011;70701;44.452;18.652;2023-08-24T12:06:02;22.15;;;19.77;;
81229;SDS011;70701;44.452;18.652;2023-08-24T12:08:37;25.02;;;22.25;;
81229;SDS011;70701;44.452;18.652;2023-08-24T12:11:12;24.70;;;21.90;;
81229;SDS011;70701;44.452;18.652;2023-08-24T12:13:42;22.45;;;20.20;;
81229;SDS011;70701;44.452;18.652;2023-08-24T12:16:09;21.73;;;19.40;;
81229;SDS011;70701;44.452;18.652;2023-08-24T12:18:35;21.20;;;18.40;;
81229;SDS011;70701;44.452;18.652;2023-08-24T12:21:11;19.75;;;17.75;;
81229;SDS011;70701;44.452;18.652;2023-08-24T12:23:38;21.73;;;16.98;;
81229;SDS011;70701;44.452;18.652;2023-08-24T12:26:07;20.40;;;17.35;;
81229;SDS011;70701;44.452;18.652;2023-08-24T12:28:33;18.85;;;17.02;;
81229;SDS011;70701;44.452;18.652;2023-08-24T12:30:58;17.88;;;16.08;;
81229;SDS011;70701;44.452;18.652;2023-08-24T12:33:31;19.20;;;17.20;;
81229;SDS011;70701;44.452;18.652;2023-08-24T12:35:57;16.50;;;14.80;;
81229;SDS011;70701;44.452;18.652;2023-08-24T12:38:26;15.93;;;14.27;;
81229;SDS011;70701;44.452;18.652;2023-08-24T12:40:52;17.70;;;15.18;;
81229;SDS011;70701;44.452;18.652;2023-08-24T12:43:18;15.48;;;13.88;;
81229;SDS011;70701;44.452;18.652;2023-08-24T12:45:44;14.57;;;12.98;;
81229;SDS011;70701;44.452;18.652;2023-08-24T12:48:10;14.93;;;12.63;;
81229;SDS011;70701;44.452;18.652;2023-08-24T12:50:37;14.38;;;12.85;;
81229;SDS011;70701;44.452;18.652;2023-08-24T12:53:03;13.93;;;12.38;;
81229;SDS011;70701;44.452;18.652;2023-08-24T12:55:31;14.30;;;12.80;;
81229;SDS011;70701;44.452;18.652;2023-08-24T12:57:58;16.02;;;12.70;;
81229;SDS011;70701;44.452;18.652;2023-08-24T13:00:24;14.43;;;12.32;;
81229;SDS011;70701;44.452;18.652;2023-08-24T13:02:50;12.68;;;10.77;;
81229;SDS011;70701;44.452;18.652;2023-08-24T13:05:16;11.77;;;10.48;;
81229;SDS011;70701;44.452;18.652;2023-08-24T13:07:42;12.52;;;11.05;;
81229;SDS011;70701;44.452;18.652;2023-08-24T13:10:08;12.00;;;10.38;;
81229;SDS011;70701;44.452;18.652;2023-08-24T13:12:34;11.10;;;9.27;;
81229;SDS011;70701;44.452;18.652;2023-08-24T13:15:00;10.13;;;8.95;;
81229;SDS011;70701;44.452;18.652;2023-08-24T13:17:27;11.35;;;9.00;;
81229;SDS011;70701;44.452;18.652;2023-08-24T13:19:54;12.52;;;10.05;;
81229;SDS011;70701;44.452;18.652;2023-08-24T13:22:20;12.63;;;10.18;;
81229;SDS011;70701;44.452;18.652;2023-08-24T13:24:48;10.60;;;9.43;;
81229;SDS011;70701;44.452;18.652;2023-08-24T13:27:13;13.90;;;9.43;;
81229;SDS011;70701;44.452;18.652;2023-08-24T13:29:42;12.35;;;9.38;;
81229;SDS011;70701;44.452;18.652;2023-08-24T13:32:08;10.82;;;9.27;;
81229;SDS011;70701;44.452;18.652;2023-08-24T13:34:33;10.00;;;9.00;;
81229;SDS011;70701;44.452;18.652;2023-08-24T13:36:59;11.95;;;9.68;;
81229;SDS011;70701;44.452;18.652;2023-08-24T13:39:26;9.63;;;7.30;;
81229;SDS011;70701;44.452;18.652;2023-08-24T13:41:55;12.45;;;9.27;;
81229;SDS011;70701;44.452;18.652;2023-08-24T13:44:22;9.93;;;7.18;;
81229;SDS011;70701;44.452;18.652;2023-08-24T13:46:47;8.07;;;7.07;;
81229;SDS011;70701;44.452;18.652;2023-08-24T13:49:13;8.13;;;6.60;;
81229;SDS011;70701;44.452;18.652;2023-08-24T13:51:39;11.88;;;7.30;;
81229;SDS011;70701;44.452;18.652;2023-08-24T13:54:16;8.43;;;6.75;;
81229;SDS011;70701;44.452;18.652;2023-08-24T13:56:43;8.00;;;7.20;;
81229;SDS011;70701;44.452;18.652;2023-08-24T13:59:09;8.88;;;7.05;;
81229;SDS011;70701;44.452;18.652;2023-08-24T14:01:35;9.43;;;6.95;;
81229;SDS011;70701;44.452;18.652;2023-08-24T14:04:01;8.70;;;6.90;;
81229;SDS011;70701;44.452;18.652;2023-08-24T14:06:28;8.82;;;6.40;;
81229;SDS011;70701;44.452;18.652;2023-08-24T14:08:56;8.45;;;6.93;;
81229;SDS011;70701;44.452;18.652;2023-08-24T14:11:22;8.40;;;7.45;;
81229;SDS011;70701;44.452;18.652;2023-08-24T14:13:48;11.27;;;8.60;;
81229;SDS011;70701;44.452;18.652;2023-08-24T14:16:14;11.40;;;8.10;;
81229;SDS011;70701;44.452;18.652;2023-08-24T14:18:41;11.35;;;9.25;;
81229;SDS011;70701;44.452;18.652;2023-08-24T14:21:09;10.80;;;8.00;;
81229;SDS011;70701;44.452;18.652;2023-08-24T14:23:35;8.77;;;7.05;;
81229;SDS011;70701;44.452;18.652;2023-08-24T14:26:04;7.68;;;6.78;;
81229;SDS011;70701;44.452;18.652;2023-08-24T14:28:48;8.88;;;7.75;;